Time;durP1;ratioP1;P1;durP2;ratioP2;P2;SDS_P1;SDS_P2;PMS_P1;PMS_P2;Temp;Humidity;BMP_temperature;BMP_pressure;BME280_temperature;BME280_humidity;BME280_pressure;Samples;Min_cycle;Max_cycle;Signal;HPM_P1;HPM_P2
2021/12/04 00:01:41;;;;;;;10.18;5.95;;;;;;;5.27;100.00;99924.44;5253900;28;20021;-70
2021/12/04 00:04:12;;;;;;;6.72;5.53;;;;;;;5.27;100.00;99916.63;5254850;28;20033;-70
2021/12/04 00:06:44;;;;;;;7.68;5.50;;;;;;;5.26;100.00;99912.38;5255150;28;20108;-70
2021/12/04 00:09:18;;;;;;;7.10;6.22;;;;;;;5.29;100.00;99901.75;5254034;28;20445;-70
2021/12/04 00:12:00;;;;;;;5.95;5.35;;;;;;;5.30;100.00;99892.19;5255463;28;20025;-70
2021/12/04 00:14:33;;;;;;;7.78;5.68;;;;;;;5.28;100.00;99886.28;5256465;28;20094;-70
2021/12/04 00:17:05;;;;;;;;;;;;;;;5.72;100.00;99882.78;5253794;28;20072;-70
2021/12/04 00:19:37;;;;;;;7.38;4.95;;;;;;;5.31;100.00;99878.25;5255840;28;20305;-70
2021/12/04 00:22:09;;;;;;;6.80;4.78;;;;;;;5.28;100.00;99874.13;5255603;28;20033;-70
2021/12/04 00:24:40;;;;;;;6.32;5.00;;;;;;;5.26;100.00;99876.00;5254277;28;20029;-70
2021/12/04 00:27:12;;;;;;;5.60;5.10;;;;;;;5.23;100.00;99865.06;5254766;28;20426;-70
2021/12/04 00:29:43;;;;;;;5.93;5.32;;;;;;;5.27;100.00;99867.28;5255954;28;20570;-70
2021/12/04 00:32:24;;;;;;;6.15;5.10;;;;;;;5.23;100.00;99860.69;5254811;28;20513;-70
2021/12/04 00:35:08;;;;;;;6.55;4.80;;;;;;;5.25;100.00;99868.34;5254629;28;20028;-70
2021/12/04 00:51:46;;;;;;;5.38;4.88;;;;;;;5.39;100.00;99862.09;5254905;28;20144;-70
2021/12/04 00:54:18;;;;;;;6.60;5.28;;;;;;;5.30;100.00;99851.47;5255400;28;20438;-70
2021/12/04 00:56:50;;;;;;;6.35;5.35;;;;;;;5.32;100.00;99853.94;5253517;28;20033;-70
2021/12/04 00:59:22;;;;;;;7.80;5.32;;;;;;;5.31;100.00;99852.31;5254179;28;20032;-70
2021/12/04 01:01:54;;;;;;;5.43;4.93;;;;;;;5.26;100.00;99849.22;5253836;28;20036;-70
2021/12/04 01:04:25;;;;;;;6.18;5.15;;;;;;;5.27;100.00;99850.88;5255130;28;20084;-70
2021/12/04 01:06:57;;;;;;;6.78;5.00;;;;;;;5.31;100.00;99858.31;5254240;28;20043;-70
2021/12/04 01:09:28;;;;;;;7.00;5.43;;;;;;;5.31;100.00;99852.31;5253933;28;20441;-70
2021/12/04 01:12:00;;;;;;;6.20;5.60;;;;;;;5.31;100.00;99854.91;5253648;28;20497;-70
2021/12/04 01:14:32;;;;;;;5.78;5.28;;;;;;;5.32;100.00;99864.31;5253152;28;20031;-70
2021/12/04 01:17:04;;;;;;;5.90;5.30;;;;;;;5.25;100.00;99851.00;5254526;28;20490;-70
2021/12/04 01:19:36;;;;;;;6.15;5.57;;;;;;;5.34;100.00;99863.28;5254477;28;20037;-70
2021/12/04 01:22:08;;;;;;;7.03;5.68;;;;;;;5.39;100.00;99860.31;5252190;28;20048;-70
2021/12/04 01:24:39;;;;;;;5.53;5.03;;;;;;;5.39;100.00;99849.91;5252229;28;20033;-70
2021/12/04 01:27:10;;;;;;;5.63;5.03;;;;;;;5.40;100.00;99858.53;5253348;28;20033;-70
2021/12/04 01:29:42;;;;;;;5.35;4.85;;;;;;;5.40;100.00;99856.75;5254578;28;20140;-70
2021/12/04 01:32:13;;;;;;;5.53;5.03;;;;;;;5.39;100.00;99849.91;5253302;28;20048;-70
2021/12/04 01:34:44;;;;;;;5.43;4.63;;;;;;;5.40;100.00;99845.53;5253613;28;20033;-70
2021/12/04 01:37:16;;;;;;;5.57;5.07;;;;;;;5.34;100.00;99831.25;5254097;28;20605;-70
2021/12/04 01:39:47;;;;;;;5.82;4.80;;;;;;;5.38;100.00;99843.06;5253809;28;20028;-70
2021/12/04 01:42:20;;;;;;;7.25;4.90;;;;;;;5.37;100.00;99831.84;5253926;28;20033;-70
2021/12/04 01:44:52;;;;;;;;;;;;;;;5.91;100.00;99850.09;5254236;28;20048;-70
2021/12/04 01:47:23;;;;;;;5.07;4.57;;;;;;;5.47;100.00;99847.53;5253645;28;19916;-70
2021/12/04 01:49:55;;;;;;;5.47;4.90;;;;;;;5.42;100.00;99844.47;5252746;28;20044;-70
2021/12/04 01:52:27;;;;;;;5.55;5.05;;;;;;;5.41;100.00;99837.63;5253800;28;20480;-69
2021/12/04 01:54:59;;;;;;;6.70;5.40;;;;;;;5.45;100.00;99844.22;5253674;28;20043;-70
2021/12/04 01:57:31;;;;;;;6.00;5.30;;;;;;;5.45;100.00;99844.22;5235307;28;20389;-71
2021/12/04 02:00:05;;;;;;;5.97;5.18;;;;;;;5.46;100.00;99840.69;5254352;28;20025;-72
2021/12/04 02:02:38;;;;;;;5.15;4.68;;;;;;;5.47;100.00;99844.13;5254189;28;20544;-71
2021/12/04 02:05:10;;;;;;;6.13;5.53;;;;;;;5.48;100.00;99841.38;5253412;28;20021;-71
2021/12/04 02:07:41;;;;;;;6.07;5.47;;;;;;;5.47;100.00;99831.13;5252617;28;20031;-71
2021/12/04 02:10:13;;;;;;;5.95;5.45;;;;;;;5.51;100.00;99833.34;5253034;28;20483;-72
2021/12/04 02:12:45;;;;;;;6.20;5.60;;;;;;;5.48;100.00;99820.59;5253309;28;20021;-71
2021/12/04 02:15:17;;;;;;;6.57;5.90;;;;;;;5.48;100.00;99812.81;5253450;28;20455;-71
2021/12/04 02:17:49;;;;;;;6.25;5.65;;;;;;;5.46;100.00;99793.94;5252153;28;20098;-71
2021/12/04 02:20:23;;;;;;;6.60;5.95;;;;;;;5.50;100.00;99792.75;5254121;28;20367;-71
2021/12/04 02:22:56;;;;;;;7.05;6.35;;;;;;;5.46;100.00;99780.13;5252965;28;20052;-71
2021/12/04 02:25:28;;;;;;;7.50;6.55;;;;;;;5.50;100.00;99787.53;5252214;28;20025;-72
2021/12/04 02:28:01;;;;;;;6.88;6.28;;;;;;;5.49;100.00;99779.84;5252828;28;20032;-73
2021/12/04 02:30:35;;;;;;;8.18;6.82;;;;;;;5.53;100.00;99783.84;5253613;28;20040;-71
2021/12/04 02:33:14;;;;;;;6.97;6.32;;;;;;;5.50;100.00;99769.34;5251664;28;20039;-71
2021/12/04 02:35:53;;;;;;;7.30;6.60;;;;;;;5.63;100.00;99752.78;5253099;28;20053;-71
2021/12/04 02:38:26;;;;;;;7.38;6.68;;;;;;;5.51;100.00;99764.97;5252271;28;20116;-71
2021/12/04 02:41:02;;;;;;;8.68;7.13;;;;;;;5.51;100.00;99754.59;5253360;28;20065;-71
2021/12/04 02:43:34;;;;;;;7.43;6.72;;;;;;;5.48;100.00;99754.84;5251938;28;20037;-71
2021/12/04 02:46:06;;;;;;;9.23;7.00;;;;;;;5.48;100.00;99747.03;5253168;28;20036;-73
2021/12/04 02:48:38;;;;;;;8.23;6.63;;;;;;;5.49;100.00;99752.13;5253368;28;20025;-71
2021/12/04 02:51:10;;;;;;;7.97;6.40;;;;;;;5.51;100.00;99750.22;5251627;28;20487;-71
2021/12/04 02:53:41;;;;;;;7.57;6.78;;;;;;;5.49;100.00;99753.88;5253181;28;20104;-71
2021/12/04 02:56:13;;;;;;;7.35;6.65;;;;;;;5.50;100.00;99755.56;5252325;28;20031;-72
2021/12/04 02:58:50;;;;;;;7.10;6.40;;;;;;;5.47;100.00;99753.19;5252328;28;20406;-71
2021/12/04 03:01:21;;;;;;;7.25;6.13;;;;;;;5.49;100.00;99756.47;5251803;28;20027;-72
2021/12/04 03:04:04;;;;;;;6.75;6.13;;;;;;;5.61;100.00;99748.53;5251754;28;20025;-71
2021/12/04 03:06:41;;;;;;;7.13;6.40;;;;;;;5.60;100.00;99753.84;5251666;28;20509;-71
2021/12/04 03:09:14;;;;;;;7.45;6.68;;;;;;;5.53;100.00;99752.69;5253019;28;20052;-71
2021/12/04 03:11:46;;;;;;;6.63;5.93;;;;;;;5.55;100.00;99753.41;5252734;28;20025;-71
2021/12/04 03:14:19;;;;;;;7.15;6.05;;;;;;;5.53;100.00;99737.09;5251777;28;20036;-73
2021/12/04 03:16:50;;;;;;;;;;;;;;;6.05;100.00;99738.03;5253279;28;20024;-71
2021/12/04 03:19:22;;;;;;;6.50;5.90;;;;;;;5.57;100.00;99722.94;5253320;28;20259;-73
2021/12/04 03:21:55;;;;;;;7.07;6.38;;;;;;;5.54;100.00;99738.75;5249878;28;20382;-71
2021/12/04 03:24:27;;;;;;;;;;;;;;;6.03;100.00;99740.78;5250630;28;20102;-72
2021/12/04 03:26:59;;;;;;;7.32;5.72;;;;;;;5.56;100.00;99734.25;5253109;28;19916;-72
2021/12/04 03:29:32;;;;;;;6.65;5.95;;;;;;;5.49;100.00;99723.56;5252970;28;20470;-72
2021/12/04 03:43:07;;;;;;;6.05;5.45;;;;;;;5.54;100.00;99713.59;5250224;28;20064;-71
2021/12/04 03:45:41;;;;;;;6.18;5.57;;;;;;;5.51;100.00;99713.84;5249973;28;20039;-71
2021/12/04 03:51:05;;;;;;;5.28;4.78;;;;;;;5.56;100.00;99709.09;5254753;28;20029;-71
2021/12/04 03:53:37;;;;;;;6.30;5.03;;;;;;;5.49;100.00;99700.19;5255060;28;20028;-70
2021/12/04 03:56:10;;;;;;;5.00;4.55;;;;;;;5.51;100.00;99700.03;5256412;28;20024;-71
2021/12/04 03:58:41;;;;;;;;;;;;;;;6.05;100.00;99699.03;5257019;28;20028;-70
2021/12/04 04:01:13;;;;;;;5.95;4.38;;;;;;;5.56;100.00;99698.69;5255501;28;19912;-72
2021/12/04 04:03:44;;;;;;;6.93;5.15;;;;;;;5.54;100.00;99705.81;5256300;28;20108;-70
2021/12/04 04:06:16;;;;;;;5.03;4.50;;;;;;;5.54;100.00;99708.41;5255971;28;20026;-72
2021/12/04 04:08:47;;;;;;;4.50;4.10;;;;;;;5.51;100.00;99700.88;5255985;28;20031;-70
2021/12/04 04:11:18;;;;;;;4.05;3.67;;;;;;;5.50;100.00;99690.59;5254796;28;20351;-70
2021/12/04 04:13:50;;;;;;;6.38;4.22;;;;;;;5.54;100.00;99687.63;5256050;28;20079;-71
2021/12/04 04:16:21;;;;;;;4.88;3.80;;;;;;;5.54;100.00;99690.22;5255914;28;20028;-71
2021/12/04 04:18:52;;;;;;;4.13;3.72;;;;;;;5.53;100.00;99685.13;5255299;28;20025;-71
2021/12/04 04:21:23;;;;;;;4.28;3.88;;;;;;;5.55;100.00;99686.66;5256056;28;20553;-70
2021/12/04 04:23:55;;;;;;;4.00;3.60;;;;;;;5.56;100.00;99680.50;5255488;28;20413;-70
2021/12/04 04:26:26;;;;;;;4.88;4.22;;;;;;;5.55;100.00;99673.69;5252104;28;20095;-71
2021/12/04 04:28:57;;;;;;;4.72;3.65;;;;;;;5.52;100.00;99673.91;5253605;28;20029;-70
2021/12/04 04:31:30;;;;;;;3.70;3.30;;;;;;;5.55;100.00;99678.88;5256091;28;20017;-71
2021/12/04 04:34:05;;;;;;;4.27;3.53;;;;;;;5.55;100.00;99668.47;5255267;28;20025;-71
2021/12/04 05:10:38;;;;;;;3.05;2.55;;;;;;;5.54;100.00;99660.81;5226490;28;20033;-71
2021/12/04 05:13:15;;;;;;;3.40;2.67;;;;;;;5.53;100.00;99647.03;5254625;28;20039;-70
2021/12/04 05:18:34;;;;;;;2.67;2.42;;;;;;;5.53;100.00;99639.22;5255101;28;20505;-71
2021/12/04 05:21:07;;;;;;;3.70;2.58;;;;;;;5.55;100.00;99636.47;5247125;28;20028;-71
2021/12/04 05:23:42;;;;;;;4.50;2.22;;;;;;;5.59;100.00;99630.09;5254809;28;20053;-71
2021/12/04 05:26:18;;;;;;;3.65;2.40;;;;;;;5.58;100.00;99634.47;5253334;28;20020;-71
2021/12/04 05:28:51;;;;;;;2.85;2.42;;;;;;;5.53;100.00;99634.03;5254682;28;20024;-71
2021/12/04 05:31:22;;;;;;;2.90;2.37;;;;;;;5.56;100.00;99643.31;5254095;28;20032;-71
2021/12/04 05:33:54;;;;;;;4.43;2.08;;;;;;;5.52;100.00;99634.13;5253366;28;20040;-71
2021/12/04 05:36:25;;;;;;;2.85;2.05;;;;;;;5.54;100.00;99643.47;5254760;28;20017;-71
2021/12/04 05:38:57;;;;;;;2.72;2.10;;;;;;;5.57;100.00;99645.00;5254261;28;20059;-70
2021/12/04 05:41:28;;;;;;;3.22;2.60;;;;;;;5.55;100.00;99639.09;5254130;28;20040;-71
2021/12/04 05:44:05;;;;;;;2.60;2.00;;;;;;;5.52;100.00;99632.34;5244304;28;20048;-72
2021/12/04 05:46:53;;;;;;;3.45;2.40;;;;;;;5.58;100.00;99642.25;5254041;28;20024;-71
2021/12/04 05:49:29;;;;;;;3.05;2.30;;;;;;;5.55;100.00;99632.13;5249113;28;20047;-71
2021/12/04 05:55:10;;;;;;;2.70;2.30;;;;;;;5.55;100.00;99629.50;5251365;28;20033;-71
2021/12/04 05:57:41;;;;;;;2.80;2.20;;;;;;;5.60;100.00;99622.16;5248978;28;20025;-71
2021/12/04 06:00:19;;;;;;;2.88;2.20;;;;;;;5.69;100.00;99622.34;5250323;28;20036;-71
2021/12/04 06:02:51;;;;;;;3.00;2.30;;;;;;;5.59;100.00;99623.09;5253657;28;20277;-71
2021/12/04 06:05:22;;;;;;;3.30;2.40;;;;;;;5.64;100.00;99629.69;5247186;28;20412;-71
2021/12/04 06:07:53;;;;;;;2.95;2.33;;;;;;;5.63;100.00;99623.69;5246999;28;20048;-71
2021/12/04 06:10:25;;;;;;;7.80;3.00;;;;;;;5.65;100.00;99620.97;5231700;28;20690;-72
2021/12/04 06:12:56;;;;;;;3.25;2.80;;;;;;;5.63;100.00;99622.84;5252400;28;20128;-71
2021/12/04 06:15:27;;;;;;;3.47;2.67;;;;;;;5.65;100.00;99618.38;5246587;28;20249;-71
2021/12/04 06:17:59;;;;;;;3.70;2.65;;;;;;;5.63;100.00;99608.09;5252401;28;20222;-71
2021/12/04 06:23:21;;;;;;;3.20;2.53;;;;;;;5.64;100.00;99616.69;5251849;28;20028;-73
2021/12/04 06:25:53;;;;;;;3.40;2.33;;;;;;;5.60;100.00;99618.72;5252614;28;20041;-71
2021/12/04 06:28:25;;;;;;;3.28;2.47;;;;;;;5.58;100.00;99608.47;5253277;28;20021;-71
2021/12/04 06:31:00;;;;;;;2.80;2.33;;;;;;;5.69;100.00;99611.97;5251937;28;20039;-71
2021/12/04 06:33:31;;;;;;;3.15;2.40;;;;;;;5.62;100.00;99616.84;5253082;28;20023;-70
2021/12/04 06:36:04;;;;;;;3.00;2.53;;;;;;;5.59;100.00;99611.91;5253122;28;20558;-71
2021/12/04 06:38:36;;;;;;;5.05;2.80;;;;;;;5.59;100.00;99617.09;5251933;28;20044;-71
2021/12/04 06:41:08;;;;;;;3.47;2.47;;;;;;;5.63;100.00;99620.25;5252947;28;20627;-73
2021/12/04 06:43:45;;;;;;;3.05;2.38;;;;;;;5.63;100.00;99613.28;5244811;28;20136;-73
2021/12/04 06:46:19;;;;;;;2.80;2.30;;;;;;;5.66;100.00;99628.63;5236698;28;20068;-73
2021/12/04 06:51:29;;;;;;;3.00;2.70;;;;;;;5.63;100.00;99617.66;5240315;28;20657;-74
2021/12/04 06:56:37;;;;;;;3.55;2.75;;;;;;;5.65;100.00;99626.97;5239187;28;20029;-73
2021/12/04 06:59:13;;;;;;;3.45;3.15;;;;;;;5.67;100.00;99626.84;5241647;28;20474;-73
2021/12/04 07:01:45;;;;;;;2.92;2.60;;;;;;;5.66;100.00;99630.41;5235102;28;20049;-73
2021/12/04 07:04:18;;;;;;;3.63;2.58;;;;;;;5.69;100.00;99624.94;5225493;28;20435;-73
2021/12/04 07:06:50;;;;;;;4.05;3.00;;;;;;;5.65;100.00;99616.59;5239592;28;20053;-73
2021/12/04 07:09:21;;;;;;;3.50;2.88;;;;;;;5.66;100.00;99620.81;5236978;28;20760;-74
2021/12/04 07:11:53;;;;;;;3.67;2.78;;;;;;;5.66;100.00;99626.03;5236814;28;20095;-73
2021/12/04 07:14:24;;;;;;;4.25;3.17;;;;;;;5.66;100.00;99628.63;5235501;28;20483;-73
2021/12/04 07:16:57;;;;;;;5.13;3.13;;;;;;;5.67;100.00;99625.06;5234338;28;20111;-71
2021/12/04 07:19:29;;;;;;;3.72;2.80;;;;;;;5.71;100.00;99625.63;5239593;28;20029;-71
2021/12/04 07:22:02;;;;;;;9.23;3.80;;;;;;;5.70;100.00;99621.41;5241049;28;20465;-72
2021/12/04 07:24:34;;;;;;;3.55;2.83;;;;;;;5.70;100.00;99619.63;5222300;28;20425;-72
2021/12/04 07:27:06;;;;;;;4.22;3.28;;;;;;;5.70;100.00;99617.00;5239205;28;20029;-71
2021/12/04 07:29:37;;;;;;;3.55;3.00;;;;;;;5.72;100.00;99622.06;5222468;28;20101;-71
2021/12/04 07:32:08;;;;;;;3.67;2.97;;;;;;;5.74;100.00;99614.97;5228096;28;20123;-72
2021/12/04 07:34:40;;;;;;;3.40;2.88;;;;;;;5.73;100.00;99613.34;5240614;28;20029;-70
2021/12/04 07:37:11;;;;;;;4.75;3.28;;;;;;;5.75;100.00;99616.63;5241631;28;20544;-71
2021/12/04 07:39:43;;;;;;;3.55;3.10;;;;;;;5.74;100.00;99625.38;5241365;28;20095;-71
2021/12/04 07:42:14;;;;;;;4.30;2.92;;;;;;;5.74;100.00;99617.59;5243184;28;20245;-70
2021/12/04 07:44:46;;;;;;;4.85;3.13;;;;;;;5.74;100.00;99605.41;5255114;28;20127;-73
2021/12/04 07:47:17;;;;;;;3.70;3.00;;;;;;;5.65;100.00;99601.00;5255007;28;20068;-70
2021/12/04 07:49:51;;;;;;;3.63;2.95;;;;;;;5.76;100.00;99602.69;5256761;28;20037;-70
2021/12/04 07:52:22;;;;;;;4.70;2.83;;;;;;;5.73;100.00;99602.94;5256735;28;20021;-70
2021/12/04 07:54:54;;;;;;;4.43;3.40;;;;;;;5.73;100.00;99603.78;5255661;28;20119;-71
2021/12/04 07:57:26;;;;;;;3.63;2.75;;;;;;;5.77;100.00;99602.56;5257649;28;20028;-70
2021/12/04 07:59:57;;;;;;;4.07;3.30;;;;;;;5.78;100.00;99603.38;5256697;28;20032;-70
2021/12/04 08:02:28;;;;;;;4.35;3.40;;;;;;;5.78;100.00;99600.78;5257162;28;20027;-70
2021/12/04 08:05:00;;;;;;;7.63;3.65;;;;;;;5.81;100.00;99596.16;5255098;28;20147;-70
2021/12/04 08:07:31;;;;;;;4.05;3.10;;;;;;;5.82;100.00;99596.97;5256584;28;20028;-70
2021/12/04 08:10:03;;;;;;;4.85;3.20;;;;;;;5.82;100.00;99599.56;5256638;28;20557;-70
2021/12/04 08:12:36;;;;;;;4.63;3.00;;;;;;;5.81;100.00;99595.31;5255939;28;20112;-70
2021/12/04 08:15:09;;;;;;;4.28;3.38;;;;;;;5.89;100.00;99581.69;5255030;28;20025;-70
2021/12/04 08:17:42;;;;;;;;;;;;;;;6.39;100.00;99579.91;5256409;28;20470;-70
2021/12/04 08:20:15;;;;;;;3.90;3.30;;;;;;;5.94;100.00;99576.94;5257772;28;19964;-70
2021/12/04 08:22:47;;;;;;;3.63;2.72;;;;;;;5.91;100.00;99575.41;5257873;28;20033;-71
2021/12/04 08:25:19;;;;;;;5.22;3.40;;;;;;;5.89;100.00;99572.09;5259126;28;20375;-70
2021/12/04 08:27:50;;;;;;;6.32;3.70;;;;;;;5.90;100.00;99571.13;5257780;28;20043;-71
2021/12/04 08:30:24;;;;;;;5.90;3.90;;;;;;;5.90;100.00;99568.53;5258953;28;20333;-71
2021/12/04 08:32:56;;;;;;;5.68;3.90;;;;;;;5.88;100.00;99561.84;5258196;28;20111;-71
2021/12/04 08:35:31;;;;;;;4.85;3.53;;;;;;;5.91;100.00;99561.56;5258254;28;20020;-71
2021/12/04 08:38:02;;;;;;;5.82;3.70;;;;;;;5.80;100.00;99547.72;5258279;28;20340;-70
2021/12/04 08:40:34;;;;;;;4.03;3.60;;;;;;;5.93;100.00;99562.28;5258626;28;20033;-72
2021/12/04 08:43:06;;;;;;;5.50;3.53;;;;;;;5.93;100.00;99552.72;5256902;28;20576;-73
2021/12/04 08:45:40;;;;;;;4.53;3.93;;;;;;;6.00;100.00;99553.84;5258133;28;20032;-73
2021/12/04 08:48:12;;;;;;;3.90;3.15;;;;;;;5.96;100.00;99539.47;5258595;28;20021;-73
2021/12/04 08:50:43;;;;;;;5.10;3.83;;;;;;;5.96;100.00;99541.25;5257866;28;20035;-73
2021/12/04 08:53:15;;;;;;;4.85;3.53;;;;;;;5.93;100.00;99539.72;5257507;28;20009;-73
2021/12/04 08:55:47;;;;;;;3.95;3.38;;;;;;;5.98;100.00;99539.31;5258639;28;20121;-73
2021/12/04 08:58:19;;;;;;;3.92;3.17;;;;;;;5.98;100.00;99529.72;5230723;28;20489;-73
2021/12/04 09:00:59;;;;;;;4.10;3.35;;;;;;;6.14;100.00;99542.25;5254874;28;20166;-73
2021/12/04 09:03:34;;;;;;;3.70;3.08;;;;;;;6.09;100.00;99542.63;5256749;28;20021;-73
2021/12/04 09:06:06;;;;;;;3.53;3.15;;;;;;;6.12;100.00;99551.94;5255967;28;20079;-73
2021/12/04 09:08:38;;;;;;;4.10;3.05;;;;;;;6.19;100.00;99547.84;5256846;28;20424;-73
2021/12/04 09:11:18;;;;;;;4.40;3.43;;;;;;;6.30;100.00;99546.94;5256366;28;20036;-73
2021/12/04 09:13:50;;;;;;;3.63;3.20;;;;;;;6.22;100.00;99547.59;5255821;28;20071;-73
2021/12/04 09:16:23;;;;;;;4.03;3.22;;;;;;;6.27;100.00;99542.81;5253494;28;20840;-71
2021/12/04 09:18:56;;;;;;;4.20;3.17;;;;;;;6.25;100.00;99531.72;5254229;28;20127;-72
2021/12/04 09:21:28;;;;;;;3.80;3.15;;;;;;;6.25;100.00;99533.47;5236734;28;20672;-73
2021/12/04 09:24:07;;;;;;;4.40;3.30;;;;;;;6.30;100.00;99520.91;5254463;28;20028;-73
2021/12/04 10:11:56;;;;;;;7.30;5.45;;;;;;;6.54;100.00;99497.09;5235019;28;20072;-73
2021/12/04 10:14:54;;;;;;;8.57;5.10;;;;;;;6.48;100.00;99495.06;5228176;28;20033;-74
2021/12/04 10:34:02;;;;;;;7.95;6.05;;;;;;;6.40;100.00;99455.88;5189824;28;20049;-74
2021/12/04 10:36:38;;;;;;;7.80;5.88;;;;;;;6.50;100.00;99451.50;5221266;28;20028;-75
2021/12/04 10:39:11;;;;;;;7.93;5.82;;;;;;;6.47;100.00;99449.16;5231390;28;20057;-74
2021/12/04 10:41:45;;;;;;;6.82;6.00;;;;;;;6.49;100.00;99457.66;5228287;28;20470;-73
2021/12/04 10:44:23;;;;;;;9.30;5.35;;;;;;;6.51;100.00;99450.53;5245578;28;20044;-70
2021/12/04 10:46:59;;;;;;;8.13;5.88;;;;;;;6.60;100.00;99443.69;5250401;28;20032;-70
2021/12/04 10:49:39;;;;;;;9.27;5.72;;;;;;;6.54;100.00;99448.47;5252200;28;20032;-70
2021/12/04 10:52:26;;;;;;;7.03;5.10;;;;;;;6.62;100.00;99431.34;5252274;28;20059;-70
2021/12/04 10:55:17;;;;;;;7.90;5.35;;;;;;;6.63;100.00;99427.78;5249855;28;20128;-70
2021/12/04 11:00:43;;;;;;;6.82;5.68;;;;;;;6.61;100.00;99422.72;5247825;28;20056;-70
2021/12/04 11:21:25;;;;;;;7.75;5.45;;;;;;;6.90;100.00;99391.44;5253925;28;20402;-71
2021/12/04 11:38:18;;;;;;;5.70;4.68;;;;;;;7.04;100.00;99372.72;5252671;28;20504;-71
2021/12/04 11:41:13;;;;;;;6.00;5.03;;;;;;;7.10;100.00;99373.13;5253771;28;20033;-71
2021/12/04 11:43:59;;;;;;;6.72;5.32;;;;;;;7.02;100.00;99360.81;5214860;28;1042910;-71
2021/12/04 11:46:45;;;;;;;9.77;6.10;;;;;;;7.19;100.00;99369.66;5250994;28;20123;-72
2021/12/04 11:49:25;;;;;;;7.20;5.90;;;;;;;7.10;100.00;99362.72;5256331;28;20033;-71
2021/12/04 11:52:02;;;;;;;7.00;5.63;;;;;;;7.03;100.00;99355.47;5254497;28;20439;-72
2021/12/04 11:54:48;;;;;;;6.28;5.25;;;;;;;7.14;100.00;99358.84;5255289;28;20107;-72
2021/12/04 11:57:35;;;;;;;6.38;5.78;;;;;;;7.23;100.00;99350.16;5256334;28;20035;-71
2021/12/04 12:00:21;;;;;;;6.95;6.07;;;;;;;7.13;100.00;99354.63;5256753;28;20033;-71
2021/12/04 12:03:12;;;;;;;6.45;5.82;;;;;;;7.20;100.00;99345.25;5254492;28;20057;-72
2021/12/04 12:05:51;;;;;;;128.98;20.45;;;;;;;7.05;100.00;99343.13;5256181;28;20043;-74
2021/12/04 12:08:32;;;;;;;12.82;6.40;;;;;;;7.15;100.00;99337.03;5256123;28;20025;-72
2021/12/04 12:11:27;;;;;;;153.43;24.23;;;;;;;7.31;100.00;99335.47;5254183;28;20036;-72
2021/12/04 12:14:11;;;;;;;19.27;6.88;;;;;;;7.22;100.00;99340.72;5210645;28;20469;-72
2021/12/04 12:16:47;;;;;;;;;;;;;;;7.62;100.00;99340.34;5256389;28;20068;-72
2021/12/04 12:19:47;;;;;;;7.75;5.80;;;;;;;7.31;100.00;99332.00;5255066;28;20397;-72
2021/12/04 12:34:16;;;;;;;6.75;5.82;;;;;;;7.00;100.00;99340.13;5256535;28;20040;-72
2021/12/04 12:36:47;;;;;;;6.68;5.50;;;;;;;6.98;100.00;99338.66;5254832;28;20033;-72
2021/12/04 12:39:19;;;;;;;6.25;5.65;;;;;;;6.93;100.00;99335.63;5253011;28;20497;-72
2021/12/04 12:41:50;;;;;;;8.73;6.53;;;;;;;6.92;100.00;99347.84;5254360;28;20052;-72
2021/12/04 12:44:28;;;;;;;10.23;6.80;;;;;;;6.96;100.00;99346.59;5234918;28;20417;-72
2021/12/04 12:47:16;;;;;;;9.93;7.65;;;;;;;7.03;100.00;99342.44;5233180;28;20121;-72
2021/12/04 12:49:49;;;;;;;9.75;8.10;;;;;;;6.86;100.00;99342.38;5234759;28;20104;-72
2021/12/04 12:52:26;;;;;;;9.57;8.07;;;;;;;6.96;100.00;99337.97;5235078;28;20088;-72
2021/12/04 12:55:10;;;;;;;10.35;9.35;;;;;;;6.99;100.00;99337.69;5232036;28;20372;-72
2021/12/04 12:57:44;;;;;;;13.15;11.25;;;;;;;6.87;100.00;99339.66;5228348;28;20032;-72
2021/12/04 13:11:53;;;;;;;14.65;13.13;;;;;;;6.99;100.00;99322.06;5233517;28;20080;-72
2021/12/04 13:14:28;;;;;;;15.43;12.68;;;;;;;6.85;100.00;99312.09;5233658;28;20017;-72
2021/12/04 13:17:12;;;;;;;13.32;11.93;;;;;;;6.99;100.00;99328.06;5234353;28;20044;-72
2021/12/04 13:19:48;;;;;;;15.48;12.43;;;;;;;6.91;100.00;99333.19;5233134;28;20079;-72
2021/12/04 13:22:23;;;;;;;13.82;11.05;;;;;;;6.91;100.00;99327.97;5233411;28;20026;-72
2021/12/04 13:24:58;;;;;;;12.75;11.45;;;;;;;6.89;100.00;99316.88;5234148;28;20388;-72
2021/12/04 13:30:09;;;;;;;11.07;9.98;;;;;;;6.89;100.00;99319.47;5233441;28;20514;-73
2021/12/04 13:32:43;;;;;;;11.35;10.25;;;;;;;6.88;100.00;99320.47;5232895;28;20029;-72
2021/12/04 13:35:20;;;;;;;13.63;9.63;;;;;;;6.91;100.00;99312.38;5232907;28;20021;-72
2021/12/04 13:38:00;;;;;;;9.98;8.98;;;;;;;6.94;100.00;99314.69;5233483;28;20033;-72
2021/12/04 13:40:32;;;;;;;11.55;9.18;;;;;;;6.84;100.00;99306.09;5233863;28;20029;-73
2021/12/04 13:43:09;;;;;;;11.65;9.23;;;;;;;6.99;100.00;99317.66;5237011;28;20053;-72
2021/12/04 13:45:41;;;;;;;9.98;8.98;;;;;;;6.90;100.00;99318.53;5253934;28;20021;-72
2021/12/04 13:48:13;;;;;;;9.52;8.57;;;;;;;6.91;100.00;99314.97;5254883;28;20374;-72
2021/12/04 13:50:44;;;;;;;10.50;9.40;;;;;;;6.94;100.00;99313.88;5253553;28;20030;-72
2021/12/04 13:53:26;;;;;;;10.48;9.38;;;;;;;7.04;100.00;99323.25;5253904;28;20017;-73
2021/12/04 13:56:03;;;;;;;9.18;8.15;;;;;;;7.01;100.00;99320.13;5254284;28;20037;-73
2021/12/04 13:58:44;;;;;;;11.52;9.27;;;;;;;7.07;100.00;99320.34;5254381;28;20121;-73
2021/12/04 14:01:16;;;;;;;11.25;9.95;;;;;;;6.94;100.00;99324.28;5252557;28;20040;-75
2021/12/04 14:03:48;;;;;;;10.77;9.63;;;;;;;6.92;100.00;99311.38;5253532;28;20158;-74
2021/12/04 14:06:20;;;;;;;10.50;9.40;;;;;;;6.90;100.00;99313.34;5254269;28;20029;-74
2021/12/04 14:09:06;;;;;;;12.38;10.32;;;;;;;7.01;100.00;99315.75;5251690;28;20035;-73
2021/12/04 14:11:40;;;;;;;11.35;10.15;;;;;;;6.95;100.00;99320.72;5245051;28;20391;-75
2021/12/04 14:14:17;;;;;;;12.07;9.35;;;;;;;6.90;100.00;99320.34;5251701;28;20020;-73
2021/12/04 14:16:51;;;;;;;11.60;10.23;;;;;;;6.93;100.00;99320.88;5251055;28;20590;-73
2021/12/04 14:19:26;;;;;;;11.63;9.38;;;;;;;6.93;100.00;99318.25;5250711;28;20411;-73
2021/12/04 14:22:05;;;;;;;11.20;10.07;;;;;;;7.00;100.00;99324.50;5252422;28;20020;-73
2021/12/04 14:24:42;;;;;;;11.35;9.68;;;;;;;6.93;100.00;99333.03;5253106;28;20486;-74
2021/12/04 14:27:22;;;;;;;10.43;9.32;;;;;;;6.99;100.00;99335.06;5252561;28;20035;-72
2021/12/04 14:29:57;;;;;;;10.15;8.95;;;;;;;6.91;100.00;99337.59;5234117;28;20032;-73
2021/12/04 14:32:31;;;;;;;11.00;9.80;;;;;;;6.91;100.00;99337.59;5253252;28;20386;-73
2021/12/04 14:35:10;;;;;;;10.68;9.57;;;;;;;6.93;100.00;99343.44;5252401;28;20028;-74
2021/12/04 14:37:44;;;;;;;9.20;7.97;;;;;;;6.92;100.00;99360.84;5253218;28;20025;-72
2021/12/04 14:40:25;;;;;;;10.50;8.48;;;;;;;6.95;100.00;99360.56;5251396;28;20036;-72
2021/12/04 14:42:57;;;;;;;8.27;7.35;;;;;;;6.82;100.00;99367.91;5251636;28;20068;-72
2021/12/04 14:45:33;;;;;;;11.35;7.28;;;;;;;6.86;100.00;99371.84;5253016;28;20653;-72
2021/12/04 14:48:11;;;;;;;7.80;6.55;;;;;;;6.83;100.00;99357.34;5251306;28;20032;-73
2021/12/04 14:50:47;;;;;;;7.63;6.10;;;;;;;6.86;100.00;99371.00;5252718;28;20029;-72
2021/12/04 14:53:20;;;;;;;7.53;5.43;;;;;;;6.86;100.00;99384.88;5252021;28;20044;-74
2021/12/04 14:55:52;;;;;;;6.73;5.40;;;;;;;6.85;100.00;99392.81;5251792;28;20029;-72
2021/12/04 14:58:25;;;;;;;6.33;4.80;;;;;;;6.82;100.00;99394.75;5252187;28;20035;-74
2021/12/04 15:01:00;;;;;;;6.93;5.53;;;;;;;6.86;100.00;99395.28;5252163;28;20035;-75
2021/12/04 15:03:52;;;;;;;7.32;5.10;;;;;;;6.86;100.00;99400.50;5251156;28;20032;-74
2021/12/04 15:06:26;;;;;;;8.63;4.70;;;;;;;6.81;100.00;99406.09;5252020;28;20032;-72
2021/12/04 15:08:58;;;;;;;;;;;;;;;7.25;100.00;99403.75;5252182;28;20070;-72
2021/12/04 15:11:34;;;;;;;6.13;3.17;;;;;;;6.86;100.00;99410.06;5251665;28;19924;-73
2021/12/04 15:14:19;;;;;;;6.93;3.97;;;;;;;6.83;100.00;99411.19;5252216;28;20040;-72
2021/12/04 15:16:57;;;;;;;8.93;4.13;;;;;;;6.82;100.00;99412.97;5252465;28;20035;-72
2021/12/04 15:19:39;;;;;;;7.05;3.20;;;;;;;6.74;100.00;99417.22;5250995;28;20498;-72
2021/12/04 15:22:22;;;;;;;4.72;3.08;;;;;;;6.84;100.00;99433.63;5252352;28;20025;-72
2021/12/04 15:24:55;;;;;;;6.25;3.03;;;;;;;6.75;100.00;99426.69;5251946;28;20174;-72
2021/12/04 15:27:28;;;;;;;6.97;3.17;;;;;;;6.77;100.00;99427.34;5251226;28;20098;-73